Longvann — PBYB — position and weather

sailwx.info

Track history (hours):
 
Tides and Currents Weather Stations Pressure Air Temp Water Temp Dewpoint Dewpoint Depression Visibility Wind Speed Wind Dir Waves Ship Positions

Longvann

Last reported at 2017-Feb-17 11:28 UTC. Time now 2017-Feb-21 05:35 UTC.
Position N 56°25' E 010°57'.

Length 114 m; draft 4.2 m.

Type: Cargo ship. MMSI: 246670000.

Date/timePositionNaut miles runAvg speedWind from/ knotsBaromVisibWave heightAir tempDewpointWater temp
2017-Feb-17 11:28N 56°25' E 010°57'1 0.1
2017-Feb-16 09:30N 56°25' E 010°60'27 6.4
2017-Feb-16 05:15N 56°21' E 011°48'6 6.4
2017-Feb-16 04:16N 56°19' E 011°59'6 8.9
2017-Feb-16 03:33N 56°17' E 012°10'7 6.8
2017-Feb-16 02:33N 56°13' E 012°20'6 6.4
2017-Feb-16 01:33N 56°09' E 012°29'7 6.7
2017-Feb-16 00:33N 56°04' E 012°38'3 3.1
2017-Feb-15 23:33N 56°02' E 012°41'0 0.0
2017-Feb-15 22:32N 56°02' E 012°41'0 0.0
2017-Feb-15 21:32N 56°02' E 012°41'0 0.0
2017-Feb-15 20:32N 56°02' E 012°41'0 0.0
2017-Feb-15 19:32N 56°02' E 012°41'0 0.0
2017-Feb-15 18:32N 56°02' E 012°41'0 0.0
2017-Feb-15 17:32N 56°02' E 012°41'0 0.0
2017-Feb-15 16:32N 56°02' E 012°41'0 0.0
2017-Feb-15 15:32N 56°02' E 012°41'0 0.0
2017-Feb-15 14:32N 56°02' E 012°41'0 0.0
2017-Feb-15 13:32N 56°02' E 012°41'0 0.0
2017-Feb-15 12:32N 56°02' E 012°41'0 0.0
2017-Feb-15 11:32N 56°02' E 012°41'0 0.0
2017-Feb-15 10:32N 56°02' E 012°41'0 0.0
2017-Feb-15 09:32N 56°02' E 012°41'0 0.0
2017-Feb-15 08:32N 56°02' E 012°41'0 0.0
2017-Feb-15 07:32N 56°02' E 012°41'0 0.0
2017-Feb-15 06:32N 56°02' E 012°41'0 0.0
2017-Feb-15 05:32N 56°02' E 012°41'0 0.0
2017-Feb-15 04:32N 56°02' E 012°41'0 0.0
2017-Feb-15 03:32N 56°02' E 012°41'0 0.0
2017-Feb-15 02:32N 56°02' E 012°41'0 0.0
2017-Feb-15 01:32N 56°02' E 012°41'0 0.0
2017-Feb-15 00:32N 56°02' E 012°41'0 0.0
2017-Feb-14 23:32N 56°02' E 012°41'0 0.0
2017-Feb-14 22:32N 56°02' E 012°41'0 0.0
2017-Feb-14 21:32N 56°02' E 012°41'0 0.0
2017-Feb-14 20:32N 56°02' E 012°41'0 0.0
2017-Feb-14 19:32N 56°02' E 012°41'0 0.0
2017-Feb-14 18:32N 56°02' E 012°41'0 0.0
2017-Feb-14 17:32N 56°02' E 012°41'0 0.0
2017-Feb-14 16:32N 56°02' E 012°41'0 0.0
2017-Feb-14 15:32N 56°02' E 012°41'0 0.0
2017-Feb-14 14:32N 56°02' E 012°41'0 0.0
2017-Feb-14 13:32N 56°02' E 012°41'0 0.0
2017-Feb-14 12:32N 56°02' E 012°41'0 0.0
2017-Feb-14 11:33N 56°02' E 012°41'6 6.3
2017-Feb-14 10:33N 55°56' E 012°44'1110.9
2017-Feb-14 09:33N 55°45' E 012°42'1010.3
2017-Feb-14 08:33N 55°35' E 012°42'1110.6
2017-Feb-14 07:33N 55°24' E 012°42'8 8.1
2017-Feb-14 06:33N 55°17' E 012°48'9 8.5
2017-Feb-14 05:33N 55°15' E 013°03'1010.5
2017-Feb-14 04:33N 55°14' E 013°21'1310.7
2017-Feb-14 03:19N 55°14' E 013°44'911.2
2017-Feb-14 02:33N 55°13' E 013°59'1110.8
2017-Feb-14 01:33N 55°15' E 014°18'1111.4
2017-Feb-14 00:33N 55°23' E 014°31'1111.5
2017-Feb-13 23:33N 55°30' E 014°48'1211.6
2017-Feb-13 22:33N 55°35' E 015°06'1211.3
2017-Feb-13 21:31N 55°40' E 015°25'6210.4
2017-Feb-13 15:33N 55°55' E 017°12'  
2017-Feb-10 14:23N 59°28' E 024°39'14010.1
2017-Feb-10 00:33N 59°31' E 020°04'1211.6
2017-Feb-09 23:33N 59°41' E 019°51'1212.3
2017-Feb-09 22:33N 59°49' E 019°34'1212.2
2017-Feb-09 21:33N 59°58' E 019°16'1212.3
2017-Feb-09 20:33N 60°06' E 018°58'1111.3
2017-Feb-09 19:33N 60°14' E 018°42'7 7.4
2017-Feb-09 18:33N 60°10' E 018°30'0 0.1
2017-Feb-09 17:27N 60°10' E 018°29'0 0.0
2017-Feb-09 16:24N 60°10' E 018°29'0 0.0
2017-Feb-09 15:27N 60°10' E 018°29'0 0.0
2017-Feb-09 14:30N 60°10' E 018°29'0 0.0
2017-Feb-09 13:30N 60°10' E 018°29'0 0.0
2017-Feb-09 12:30N 60°10' E 018°29'0 0.0
2017-Feb-09 11:33N 60°10' E 018°29'0 0.0
2017-Feb-09 10:33N 60°10' E 018°29'0 0.0
2017-Feb-09 09:33N 60°10' E 018°29'0 0.0
2017-Feb-09 08:33N 60°10' E 018°29'0 0.0
2017-Feb-09 07:33N 60°10' E 018°29'0 0.0
2017-Feb-09 06:24N 60°10' E 018°29'0 0.0
2017-Feb-09 05:24N 60°10' E 018°29'0 0.0
2017-Feb-09 04:24N 60°10' E 018°29'0 0.0
2017-Feb-09 03:24N 60°10' E 018°29'0 0.0
2017-Feb-09 02:24N 60°10' E 018°29'0 0.0
2017-Feb-09 01:30N 60°10' E 018°29'0 0.0
2017-Feb-09 00:30N 60°10' E 018°29'0 0.0
2017-Feb-08 23:30N 60°10' E 018°29'0 0.0
2017-Feb-08 22:30N 60°10' E 018°29'0 0.0
2017-Feb-08 21:30N 60°10' E 018°29'0 0.0
2017-Feb-08 20:33N 60°10' E 018°29'0 0.0
2017-Feb-08 19:33N 60°10' E 018°29'0 0.0
2017-Feb-08 18:33N 60°10' E 018°29'0 0.0
2017-Feb-08 17:21N 60°10' E 018°29'0 0.0
2017-Feb-08 16:33N 60°10' E 018°29'0 0.0
2017-Feb-08 15:24N 60°10' E 018°29'0 0.0
2017-Feb-08 14:24N 60°10' E 018°29'0 0.0
2017-Feb-08 13:27N 60°10' E 018°29'0 0.0
2017-Feb-08 12:24N 60°10' E 018°29'0 0.0
2017-Feb-08 11:12N 60°10' E 018°29'0 0.0
2017-Feb-08 10:30N 60°10' E 018°29'0 0.0
2017-Feb-08 09:30N 60°10' E 018°29'0 0.0
2017-Feb-08 08:33N 60°10' E 018°29'0 0.0
2017-Feb-08 07:30N 60°10' E 018°29'0 0.0
2017-Feb-08 06:34N 60°10' E 018°29'2 1.6
2017-Feb-08 05:34N 60°10' E 018°32'8 7.9
2017-Feb-08 04:33N 60°14' E 018°46'9 9.2
2017-Feb-08 03:34N 60°06' E 018°58'9 8.7
2017-Feb-08 02:33N 60°01' E 019°11'9 8.9
2017-Feb-08 01:33N 59°56' E 019°26'9 9.1
2017-Feb-08 00:33N 59°50' E 019°40'9 8.9
2017-Feb-07 23:33N 59°44' E 019°53'  
Track history (hours):
 
Tides and Currents Weather Stations Pressure Air Temp Water Temp Dewpoint Dewpoint Depression Visibility Wind Speed Wind Dir Waves Ship Positions

Longvann

Last reported at 2017-Feb-17 11:28 UTC. Time now 2017-Feb-21 05:35 UTC.
Position N 56°25' E 010°57'.

Length 114 m; draft 4.2 m.

Type: Cargo ship. MMSI: 246670000.

Date/timePositionNaut miles runAvg speedWind from/ knotsBaromVisibWave heightAir tempDewpointWater temp
2017-Feb-17 11:28N 56°25' E 010°57'1 0.1
2017-Feb-16 09:30N 56°25' E 010°60'27 6.4
2017-Feb-16 05:15N 56°21' E 011°48'6 6.4
2017-Feb-16 04:16N 56°19' E 011°59'6 8.9
2017-Feb-16 03:33N 56°17' E 012°10'7 6.8
2017-Feb-16 02:33N 56°13' E 012°20'6 6.4
2017-Feb-16 01:33N 56°09' E 012°29'7 6.7
2017-Feb-16 00:33N 56°04' E 012°38'3 3.1
2017-Feb-15 23:33N 56°02' E 012°41'0 0.0
2017-Feb-15 22:32N 56°02' E 012°41'0 0.0
2017-Feb-15 21:32N 56°02' E 012°41'0 0.0
2017-Feb-15 20:32N 56°02' E 012°41'0 0.0
2017-Feb-15 19:32N 56°02' E 012°41'0 0.0
2017-Feb-15 18:32N 56°02' E 012°41'0 0.0
2017-Feb-15 17:32N 56°02' E 012°41'0 0.0
2017-Feb-15 16:32N 56°02' E 012°41'0 0.0
2017-Feb-15 15:32N 56°02' E 012°41'0 0.0
2017-Feb-15 14:32N 56°02' E 012°41'0 0.0
2017-Feb-15 13:32N 56°02' E 012°41'0 0.0
2017-Feb-15 12:32N 56°02' E 012°41'0 0.0
2017-Feb-15 11:32N 56°02' E 012°41'0 0.0
2017-Feb-15 10:32N 56°02' E 012°41'0 0.0
2017-Feb-15 09:32N 56°02' E 012°41'0 0.0
2017-Feb-15 08:32N 56°02' E 012°41'0 0.0
2017-Feb-15 07:32N 56°02' E 012°41'0 0.0
2017-Feb-15 06:32N 56°02' E 012°41'0 0.0
2017-Feb-15 05:32N 56°02' E 012°41'0 0.0
2017-Feb-15 04:32N 56°02' E 012°41'0 0.0
2017-Feb-15 03:32N 56°02' E 012°41'0 0.0
2017-Feb-15 02:32N 56°02' E 012°41'0 0.0
2017-Feb-15 01:32N 56°02' E 012°41'0 0.0
2017-Feb-15 00:32N 56°02' E 012°41'0 0.0
2017-Feb-14 23:32N 56°02' E 012°41'0 0.0
2017-Feb-14 22:32N 56°02' E 012°41'0 0.0
2017-Feb-14 21:32N 56°02' E 012°41'0 0.0
2017-Feb-14 20:32N 56°02' E 012°41'0 0.0
2017-Feb-14 19:32N 56°02' E 012°41'0 0.0
2017-Feb-14 18:32N 56°02' E 012°41'0 0.0
2017-Feb-14 17:32N 56°02' E 012°41'0 0.0
2017-Feb-14 16:32N 56°02' E 012°41'0 0.0
2017-Feb-14 15:32N 56°02' E 012°41'0 0.0
2017-Feb-14 14:32N 56°02' E 012°41'0 0.0
2017-Feb-14 13:32N 56°02' E 012°41'0 0.0
2017-Feb-14 12:32N 56°02' E 012°41'0 0.0
2017-Feb-14 11:33N 56°02' E 012°41'6 6.3
2017-Feb-14 10:33N 55°56' E 012°44'1110.9
2017-Feb-14 09:33N 55°45' E 012°42'1010.3
2017-Feb-14 08:33N 55°35' E 012°42'1110.6
2017-Feb-14 07:33N 55°24' E 012°42'8 8.1
2017-Feb-14 06:33N 55°17' E 012°48'9 8.5
2017-Feb-14 05:33N 55°15' E 013°03'1010.5
2017-Feb-14 04:33N 55°14' E 013°21'1310.7
2017-Feb-14 03:19N 55°14' E 013°44'911.2
2017-Feb-14 02:33N 55°13' E 013°59'1110.8
2017-Feb-14 01:33N 55°15' E 014°18'1111.4
2017-Feb-14 00:33N 55°23' E 014°31'1111.5
2017-Feb-13 23:33N 55°30' E 014°48'1211.6
2017-Feb-13 22:33N 55°35' E 015°06'1211.3
2017-Feb-13 21:31N 55°40' E 015°25'6210.4
2017-Feb-13 15:33N 55°55' E 017°12'  
2017-Feb-10 14:23N 59°28' E 024°39'14010.1
2017-Feb-10 00:33N 59°31' E 020°04'1211.6
2017-Feb-09 23:33N 59°41' E 019°51'1212.3
2017-Feb-09 22:33N 59°49' E 019°34'1212.2
2017-Feb-09 21:33N 59°58' E 019°16'1212.3
2017-Feb-09 20:33N 60°06' E 018°58'1111.3
2017-Feb-09 19:33N 60°14' E 018°42'7 7.4
2017-Feb-09 18:33N 60°10' E 018°30'0 0.1
2017-Feb-09 17:27N 60°10' E 018°29'0 0.0
2017-Feb-09 16:24N 60°10' E 018°29'0 0.0
2017-Feb-09 15:27N 60°10' E 018°29'0 0.0
2017-Feb-09 14:30N 60°10' E 018°29'0 0.0
2017-Feb-09 13:30N 60°10' E 018°29'0 0.0
2017-Feb-09 12:30N 60°10' E 018°29'0 0.0
2017-Feb-09 11:33N 60°10' E 018°29'0 0.0
2017-Feb-09 10:33N 60°10' E 018°29'0 0.0
2017-Feb-09 09:33N 60°10' E 018°29'0 0.0
2017-Feb-09 08:33N 60°10' E 018°29'0 0.0
2017-Feb-09 07:33N 60°10' E 018°29'0 0.0
2017-Feb-09 06:24N 60°10' E 018°29'0 0.0
2017-Feb-09 05:24N 60°10' E 018°29'0 0.0
2017-Feb-09 04:24N 60°10' E 018°29'0 0.0
2017-Feb-09 03:24N 60°10' E 018°29'0 0.0
2017-Feb-09 02:24N 60°10' E 018°29'0 0.0
2017-Feb-09 01:30N 60°10' E 018°29'0 0.0
2017-Feb-09 00:30N 60°10' E 018°29'0 0.0
2017-Feb-08 23:30N 60°10' E 018°29'0 0.0
2017-Feb-08 22:30N 60°10' E 018°29'0 0.0
2017-Feb-08 21:30N 60°10' E 018°29'0 0.0
2017-Feb-08 20:33N 60°10' E 018°29'0 0.0
2017-Feb-08 19:33N 60°10' E 018°29'0 0.0
2017-Feb-08 18:33N 60°10' E 018°29'0 0.0
2017-Feb-08 17:21N 60°10' E 018°29'0 0.0
2017-Feb-08 16:33N 60°10' E 018°29'0 0.0
2017-Feb-08 15:24N 60°10' E 018°29'0 0.0
2017-Feb-08 14:24N 60°10' E 018°29'0 0.0
2017-Feb-08 13:27N 60°10' E 018°29'0 0.0
2017-Feb-08 12:24N 60°10' E 018°29'0 0.0
2017-Feb-08 11:12N 60°10' E 018°29'0 0.0
2017-Feb-08 10:30N 60°10' E 018°29'0 0.0
2017-Feb-08 09:30N 60°10' E 018°29'0 0.0
2017-Feb-08 08:33N 60°10' E 018°29'0 0.0
2017-Feb-08 07:30N 60°10' E 018°29'0 0.0
2017-Feb-08 06:34N 60°10' E 018°29'2 1.6
2017-Feb-08 05:34N 60°10' E 018°32'8 7.9
2017-Feb-08 04:33N 60°14' E 018°46'9 9.2
2017-Feb-08 03:34N 60°06' E 018°58'9 8.7
2017-Feb-08 02:33N 60°01' E 019°11'9 8.9
2017-Feb-08 01:33N 59°56' E 019°26'9 9.1
2017-Feb-08 00:33N 59°50' E 019°40'9 8.9
2017-Feb-07 23:33N 59°44' E 019°53'  

Dump ship's entire track history